MVD weather

Carrasco International /General C L Berisso Airport
Montevideo, Canelones Department, Uruguay

Public forecast

Using degrees Celsius for public forecast. Weather courtesy of forecast.io.

METAR (pilot weather report)

Retrieved 2019/05/25 16:00 UTC (48 minutes ago):

SUMU 251600Z 32007KT CAVOK 18/09 Q1015 NOSIG

TAF (pilot weather forecast)

Retrieved 2019/05/25 12:21 UTC (4 hours ago):

TAF TAF SUMU 251130Z 2512/2612 33008KT CAVOK TX18/2518Z TN08/2610Z